Pagrindinis puslapis
METAR-TAF:

METAR-TAF

Oro uostai :

Quatro de Fevereiro oro uostas

Luanda, Angola

platuma: 08-51S, ilguma: 013-14E, Aukštis: 74 m

Dabartinis oras

Ataskaita buvo paskelbta 1 valandą ir 14 minutes, ne 04:00 UTC
Vėjas 2 kt nuo kintamojo kryptimis
Temperatūra 24°C
Drėgmė 89%
Slėgis 1011 hPa
Matomumas: 9000 m
Mažai debesys ne aukštis 2000 ft

METAR: FNLU 290400Z VRB02KT 9000 FEW020 24/22 Q1011 NOSIG

Laikas: 06:14 (05:14 UTC)

Prognozė

Ataskaita buvo paskelbta 6 valandos ir 14 minutes, ne 23:00 UTC
Prognozė galioja nuo 29 metu 00 UTC su 30 metu 06 UTC
Vėjas 6 kt iš Pietų
Matomumas 10 km arba daugiau
Išsisklaidę debesys ne aukštis 2000 ft
Tikimybė 30% :
Laikinai
nuo 29 metu 04 UTC su 29 metu 08 UTC
Vėjas 3 kt nuo kintamojo kryptimis
Matomumas: 8000 m
Su prošvaistėmis ne aukštis 2000 ft
Tapsmas
nuo 29 metu 10 UTC su 29 metu 12 UTC
Vėjas 8 kt iš Pietvakarių
Mažai debesys ne aukštis 2300 ft

TAF: FNLU 282300Z 2900/3006 18006KT 9999 SCT020 PROB30 TEMPO 2904/2908 VRB03KT 8000 BKN020 BECMG 2910/2912 22008KT FEW023

Orai ataskaitas ir orų prognozės (METAR, TAF).

turimą stotys yra geltonos ir raudonos taškus žemėlapyje.

Perkelti pele per norėdami pamatyti stoties vardą.

Tada spustelėkite, norėdami matyti oro stebėjimo ir prognozės.

Norėdami pakeisti žemėlapį: spustelėkite ant žalios mygtukų su juodo kryžiaus žemyn,; žalią mygtuką su brūkšneliu, jei norite nutolinti; arba žalių rodyklių gretimoms žemėlapius.


METAR-TAF: